createdAt,value
2023-04-09T04:17:51.987Z,7.28
2023-04-09T04:20:22.832Z,7.50
2023-04-09T04:22:53.226Z,8.50
2023-04-09T04:25:23.555Z,8.27
2023-04-09T04:27:55.186Z,8.55
2023-04-09T04:30:25.783Z,7.47
2023-04-09T04:32:59.080Z,7.97
2023-04-09T04:35:29.575Z,8.68
2023-04-09T04:37:59.780Z,8.65
2023-04-09T04:40:30.407Z,8.63
2023-04-09T04:43:00.601Z,9.88
2023-04-09T04:45:33.720Z,10.02
2023-04-09T04:48:07.014Z,10.00
2023-04-09T04:50:37.623Z,10.45
2023-04-09T04:53:08.098Z,9.60
2023-04-09T04:55:39.802Z,9.18
2023-04-09T04:58:10.325Z,9.25
2023-04-09T05:00:40.568Z,9.15
2023-04-09T05:03:13.566Z,9.32
2023-04-09T05:05:43.875Z,8.67
2023-04-09T05:08:14.525Z,9.02
2023-04-09T05:10:47.163Z,9.40
2023-04-09T05:13:21.072Z,8.45
2023-04-09T05:15:51.313Z,9.57
2023-04-09T05:18:24.133Z,9.23
2023-04-09T05:20:54.434Z,8.45
2023-04-09T05:23:24.806Z,8.02
2023-04-09T05:25:55.030Z,9.30
2023-04-09T05:28:25.222Z,10.30
2023-04-09T05:30:55.581Z,9.23
2023-04-09T05:33:29.586Z,9.63
2023-04-09T05:38:29.921Z,9.25
2023-04-09T05:41:00.928Z,9.65
2023-04-09T05:43:31.500Z,11.02
2023-04-09T05:46:03.842Z,11.63
2023-04-09T05:48:39.830Z,10.15
2023-04-09T05:51:10.248Z,10.05
2023-04-09T05:53:40.774Z,10.45
2023-04-09T05:56:17.414Z,11.32
2023-04-09T05:58:51.092Z,8.57
2023-04-09T06:01:21.751Z,9.80
2023-04-09T06:03:57.054Z,9.48
2023-04-09T06:06:28.479Z,9.73
2023-04-09T06:08:58.926Z,8.50
2023-04-09T06:11:29.235Z,7.88
2023-04-09T06:13:59.529Z,10.10
2023-04-09T06:16:29.817Z,8.68
2023-04-09T06:19:02.714Z,8.45
2023-04-09T06:21:33.556Z,8.83
2023-04-09T06:24:03.861Z,9.35
2023-04-09T06:26:34.187Z,9.10
2023-04-09T06:29:04.959Z,9.50
2023-04-09T06:31:35.351Z,10.27
2023-04-09T06:34:11.312Z,10.85
2023-04-09T06:36:41.565Z,9.68
2023-04-09T06:39:11.801Z,9.85
2023-04-09T06:41:42.117Z,10.25
2023-04-09T06:44:12.869Z,11.15
2023-04-09T06:46:43.119Z,10.77
2023-04-09T06:49:16.169Z,10.60
2023-04-09T06:51:46.801Z,10.88
2023-04-09T06:54:17.089Z,10.50
2023-04-09T06:56:47.286Z,8.77
2023-04-09T06:59:19.152Z,9.68
2023-04-09T07:01:50.026Z,9.57
2023-04-09T07:04:25.444Z,9.52
2023-04-09T07:06:57.087Z,9.93
2023-04-09T07:09:27.539Z,9.65
2023-04-09T07:11:57.916Z,9.77
2023-04-09T07:14:28.366Z,6.80
2023-04-09T07:16:58.624Z,7.18
2023-04-09T07:19:34.322Z,7.13
2023-04-09T07:22:04.941Z,7.75
2023-04-09T07:24:35.513Z,7.28
2023-04-09T07:27:10.029Z,7.20
2023-04-09T07:29:40.268Z,6.82
2023-04-09T07:32:10.514Z,7.80
2023-04-09T07:34:43.393Z,7.35
2023-04-09T07:37:14.044Z,7.25
2023-04-09T07:39:44.260Z,6.60
2023-04-09T07:42:14.536Z,7.32
2023-04-09T07:44:44.822Z,6.55
2023-04-09T07:47:15.778Z,6.40
2023-04-09T07:49:48.697Z,6.63
2023-04-09T07:52:19.769Z,6.07
2023-04-09T07:54:50.066Z,6.75
2023-04-09T07:57:20.472Z,6.93
2023-04-09T07:59:52.002Z,6.65
2023-04-09T08:02:23.446Z,5.97
2023-04-09T08:04:56.734Z,6.20
2023-04-09T08:07:27.065Z,6.65
2023-04-09T08:09:57.811Z,6.80
2023-04-09T08:12:28.309Z,7.03
2023-04-09T08:14:58.498Z,6.47
2023-04-09T08:17:28.770Z,6.68
2023-04-09T08:20:02.030Z,6.00
2023-04-09T08:22:32.492Z,5.43
2023-04-09T08:25:03.074Z,5.70
2023-04-09T08:27:34.951Z,6.07
2023-04-09T08:30:08.474Z,6.88
2023-04-09T08:32:39.111Z,5.00
2023-04-09T08:35:13.420Z,6.13
2023-04-09T08:37:43.846Z,6.78
2023-04-09T08:40:15.299Z,5.78
2023-04-09T08:42:48.247Z,4.70
2023-04-09T08:45:19.753Z,5.60
2023-04-09T08:47:52.450Z,4.63
2023-04-09T08:50:25.778Z,5.82
2023-04-09T08:52:56.821Z,5.23
2023-04-09T08:55:27.443Z,4.82
2023-04-09T08:57:58.489Z,3.78
2023-04-09T09:00:28.930Z,4.75
2023-04-09T09:03:07.298Z,4.68
2023-04-09T09:05:44.817Z,5.28
2023-04-09T09:08:17.238Z,4.03
2023-04-09T09:10:51.301Z,4.68
2023-04-09T09:13:27.754Z,4.55
2023-04-09T09:16:15.134Z,4.53
2023-04-09T09:18:48.398Z,4.43
2023-04-09T09:21:22.329Z,4.60
2023-04-09T09:23:53.567Z,5.28
2023-04-09T09:26:27.481Z,4.85
2023-04-09T09:28:59.239Z,5.75
2023-04-09T09:31:32.697Z,5.32
2023-04-09T09:34:12.018Z,6.05
2023-04-09T09:36:45.277Z,5.47
2023-04-09T09:39:17.649Z,5.88
2023-04-09T09:41:51.088Z,5.68
2023-04-09T09:44:34.968Z,4.50
2023-04-09T09:47:06.779Z,5.93
2023-04-09T09:49:37.060Z,5.72
2023-04-09T09:52:13.090Z,6.40
2023-04-09T09:54:44.959Z,5.32
2023-04-09T09:57:16.646Z,5.95
2023-04-09T09:59:53.870Z,6.07
2023-04-09T10:02:31.355Z,6.30
2023-04-09T10:05:04.371Z,6.10
2023-04-09T10:07:37.909Z,5.90
2023-04-09T10:10:10.996Z,6.10
2023-04-09T10:12:42.666Z,5.85
2023-04-09T10:15:13.799Z,6.40
2023-04-09T10:17:44.204Z,6.13
2023-04-09T10:20:21.287Z,4.93
2023-04-09T10:22:59.907Z,5.75
2023-04-09T10:25:30.574Z,6.35
2023-04-09T10:28:04.403Z,5.95
2023-04-09T10:30:35.446Z,6.50
2023-04-09T10:33:13.404Z,6.63
2023-04-09T10:35:44.175Z,5.32
2023-04-09T10:38:18.072Z,6.13
2023-04-09T10:43:23.798Z,8.43
2023-04-09T10:45:54.611Z,6.40
2023-04-09T10:48:27.060Z,6.13
2023-04-09T10:50:58.289Z,4.95
2023-04-09T10:53:31.332Z,6.00
2023-04-09T10:56:01.579Z,7.03
2023-04-09T10:58:31.960Z,7.25
2023-04-09T11:01:04.893Z,5.80
2023-04-09T11:03:47.377Z,6.43
2023-04-09T11:06:22.916Z,5.88
2023-04-09T11:08:56.617Z,7.75
2023-04-09T11:11:29.538Z,6.47
2023-04-09T11:14:02.669Z,5.68
2023-04-09T11:16:33.806Z,7.27
2023-04-09T11:19:04.331Z,6.43
2023-04-09T11:21:35.825Z,6.97
2023-04-09T11:24:09.283Z,6.78
2023-04-09T11:26:40.209Z,7.65
2023-04-09T11:29:11.387Z,3.35
2023-04-09T11:31:41.884Z,7.10
2023-04-09T11:34:13.579Z,6.07
2023-04-09T11:36:43.822Z,6.45
2023-04-09T11:39:16.856Z,6.72
2023-04-09T11:41:50.017Z,7.00
2023-04-09T11:44:21.112Z,5.95
2023-04-09T11:46:52.441Z,7.90
2023-04-09T11:49:25.546Z,6.95
2023-04-09T11:51:58.333Z,6.83
2023-04-09T11:54:34.879Z,7.88
2023-04-09T11:57:07.896Z,6.47
2023-04-09T11:59:41.649Z,6.93
2023-04-09T12:02:12.588Z,6.90
2023-04-09T12:04:54.813Z,6.07
2023-04-09T12:07:25.584Z,6.90
2023-04-09T12:09:58.678Z,7.90
2023-04-09T12:12:29.089Z,7.80
2023-04-09T12:14:59.584Z,7.57
2023-04-09T12:17:30.096Z,6.68
2023-04-09T12:20:00.612Z,8.23
2023-04-09T12:22:31.072Z,7.70
2023-04-09T12:25:03.986Z,8.25
2023-04-09T12:27:34.322Z,7.20
2023-04-09T12:30:04.760Z,7.70
2023-04-09T12:32:35.174Z,6.55
2023-04-09T12:35:06.317Z,7.55
2023-04-09T12:37:36.664Z,8.98
2023-04-09T12:40:15.866Z,7.22
2023-04-09T12:42:47.343Z,7.28
2023-04-09T12:45:19.374Z,6.95
2023-04-09T12:47:51.966Z,7.55
2023-04-09T12:50:22.660Z,6.57
2023-04-09T12:52:53.544Z,5.60
2023-04-09T12:55:26.525Z,6.53
2023-04-09T12:57:56.996Z,6.22
2023-04-09T13:00:31.101Z,6.20
2023-04-09T13:03:01.858Z,6.47
2023-04-09T13:05:35.653Z,7.13
2023-04-09T13:08:06.049Z,6.32
2023-04-09T13:10:39.457Z,6.53
2023-04-09T13:13:12.404Z,6.63
2023-04-09T13:15:47.762Z,6.43
2023-04-09T13:18:18.009Z,6.93
2023-04-09T13:20:48.307Z,6.35
2023-04-09T13:23:18.724Z,6.25
2023-04-09T13:25:51.994Z,6.60
2023-04-09T13:42:19.351Z,7.18
2023-04-09T13:44:49.643Z,6.93
2023-04-09T13:47:20.518Z,7.30
2023-04-09T13:49:51.745Z,6.85
2023-04-09T13:55:32.845Z,7.55
2023-04-09T13:58:05.778Z,7.35
2023-04-09T14:00:36.326Z,7.33
2023-04-09T14:03:07.820Z,7.32
2023-04-09T14:05:38.552Z,8.48
2023-04-09T14:08:09.070Z,7.60
2023-04-09T14:10:39.700Z,6.95
2023-04-09T14:13:16.474Z,7.85
2023-04-09T14:15:47.073Z,7.35
2023-04-09T14:18:17.283Z,7.53
2023-04-09T14:20:47.678Z,7.63
2023-04-09T14:23:17.930Z,6.50
2023-04-09T14:25:48.192Z,7.25
2023-04-09T14:28:21.005Z,7.82
2023-04-09T14:30:51.415Z,7.13
2023-04-09T14:33:21.643Z,7.88
2023-04-09T14:35:52.014Z,7.70
2023-04-09T14:38:24.163Z,6.80
2023-04-09T14:40:54.600Z,7.68
2023-04-09T14:43:27.537Z,6.78
2023-04-09T14:45:57.820Z,8.02
2023-04-09T14:48:28.150Z,7.10
2023-04-09T14:50:58.449Z,7.53
2023-04-09T14:53:28.915Z,7.93
2023-04-09T14:56:00.970Z,7.15
2023-04-09T14:58:35.203Z,6.05
2023-04-09T15:01:08.563Z,6.97
2023-04-09T15:03:42.389Z,7.28
2023-04-09T15:06:15.010Z,6.93
2023-04-09T15:08:45.725Z,7.20
2023-04-09T15:11:19.042Z,8.23
2023-04-09T15:13:54.212Z,7.27
2023-04-09T15:16:26.228Z,6.22
2023-04-09T15:18:59.314Z,7.38
2023-04-09T15:21:32.843Z,7.43
2023-04-09T15:24:03.937Z,7.90
2023-04-09T15:26:34.812Z,7.75
2023-04-09T15:29:10.567Z,10.13
2023-04-09T15:31:41.722Z,8.50
2023-04-09T15:34:15.012Z,9.07
2023-04-09T15:36:45.306Z,6.72
2023-04-09T15:39:15.682Z,8.20
2023-04-09T15:41:46.016Z,9.35
2023-04-09T15:44:18.924Z,9.00
2023-04-09T15:46:49.160Z,7.30
2023-04-09T15:49:19.768Z,7.57
2023-04-09T16:58:29.103Z,9.10
2023-04-09T17:01:01.077Z,7.15
2023-04-09T17:03:31.674Z,9.40
2023-04-09T17:06:05.025Z,9.40
2023-04-09T17:08:38.565Z,9.10
2023-04-09T17:11:09.135Z,8.68
2023-04-09T17:13:45.122Z,7.93
2023-04-09T17:16:16.453Z,7.68
2023-04-09T17:18:48.250Z,9.05
2023-04-09T17:21:18.553Z,7.28
2023-04-09T17:23:49.156Z,8.95
2023-04-09T17:26:19.443Z,7.75
2023-04-09T17:28:55.194Z,7.82
2023-04-09T17:31:27.008Z,8.25
2023-04-09T17:33:57.370Z,9.60
2023-04-09T17:36:28.201Z,8.68
2023-04-09T17:39:03.746Z,10.25
2023-04-09T17:52:09.414Z,9.50
2023-04-09T17:54:39.862Z,8.98
2023-04-09T17:57:10.503Z,9.77
2023-04-09T17:59:41.170Z,10.88
2023-04-09T18:02:11.900Z,10.05
2023-04-09T18:04:42.532Z,9.88
2023-04-09T18:07:15.733Z,10.13
2023-04-09T18:09:46.511Z,10.27
2023-04-09T18:12:16.904Z,11.05
2023-04-09T18:14:49.430Z,10.32
2023-04-09T18:17:20.319Z,12.40
2023-04-09T18:19:50.907Z,12.55
2023-04-09T18:22:24.145Z,11.57
2023-04-09T18:24:57.190Z,9.82
2023-04-09T18:27:27.544Z,10.43
2023-04-09T18:29:59.529Z,10.68
2023-04-09T18:32:30.388Z,10.98
2023-04-09T18:35:00.670Z,10.52
2023-04-09T18:37:34.410Z,12.93
2023-04-09T18:40:05.272Z,12.98
2023-04-09T18:42:35.744Z,11.90
2023-04-09T18:45:09.195Z,13.70
2023-04-09T18:47:40.687Z,11.93
2023-04-09T18:50:12.799Z,11.32
2023-04-09T18:52:47.874Z,11.43
2023-04-09T18:55:18.450Z,12.15
2023-04-09T18:57:48.883Z,12.10
2023-04-09T19:00:25.075Z,12.90
2023-04-09T19:02:56.708Z,12.57
2023-04-09T19:05:27.094Z,10.85
2023-04-09T19:08:04.638Z,12.18
2023-04-09T19:10:35.342Z,10.77
2023-04-09T19:13:06.059Z,9.95
2023-04-09T19:15:36.306Z,12.38
2023-04-09T19:18:07.060Z,12.02
2023-04-09T19:20:37.906Z,11.32
2023-04-09T19:23:12.096Z,40.92
2023-04-09T19:25:43.047Z,17.92
2023-04-09T19:28:13.416Z,14.35
2023-04-09T19:30:43.732Z,14.32
2023-04-09T19:33:14.146Z,27.13
2023-04-09T19:35:44.672Z,23.25
2023-04-09T19:38:20.695Z,16.08
2023-04-09T19:40:51.405Z,12.63
2023-04-09T19:43:21.815Z,12.68
2023-04-09T19:45:52.281Z,11.20
2023-04-09T19:48:25.665Z,12.77
2023-04-09T19:50:55.963Z,11.63
2023-04-09T19:53:28.878Z,11.70
2023-04-09T19:55:59.292Z,11.50
2023-04-09T19:58:29.738Z,11.38
2023-04-09T20:01:01.046Z,11.57
2023-04-09T20:03:31.984Z,10.77
2023-04-09T20:06:02.301Z,12.73
2023-04-09T20:08:38.987Z,12.18
2023-04-09T20:11:09.302Z,12.75
2023-04-09T20:13:39.678Z,13.23
2023-04-09T20:16:10.331Z,15.57
2023-04-09T20:18:41.105Z,15.32
2023-04-09T20:21:14.527Z,13.57
2023-04-09T20:23:48.171Z,13.15
2023-04-09T20:26:18.396Z,14.80
2023-04-09T20:28:50.036Z,13.38
2023-04-09T20:31:20.415Z,15.18
2023-04-09T20:33:50.850Z,14.43
2023-04-09T20:36:22.422Z,15.52
2023-04-09T20:38:56.597Z,15.10
2023-04-09T20:41:30.051Z,18.25
2023-04-09T20:44:00.579Z,13.87
2023-04-09T20:56:30.052Z,13.10
2023-04-09T20:59:00.374Z,11.80
2023-04-09T21:01:30.841Z,11.80
2023-04-09T21:04:04.406Z,11.88
2023-04-09T21:06:36.777Z,11.80
2023-04-09T21:09:07.399Z,11.30
2023-04-09T21:11:40.202Z,12.32
2023-04-09T21:14:12.771Z,11.95
2023-04-09T21:16:43.127Z,10.55
2023-04-09T21:19:13.698Z,10.82
2023-04-09T21:21:44.022Z,10.68
2023-04-09T21:24:19.091Z,11.18
2023-04-09T21:26:52.860Z,11.05
2023-04-09T21:31:54.307Z,9.57
2023-04-09T21:34:24.538Z,10.57
2023-04-09T21:36:54.896Z,11.18
2023-04-09T21:39:25.233Z,11.63
2023-04-09T21:41:58.456Z,11.32
2023-04-09T21:44:28.947Z,11.15
2023-04-09T21:47:01.822Z,11.45
2023-04-09T21:49:32.066Z,10.73
2023-04-09T21:52:02.451Z,10.05
2023-04-09T22:08:03.142Z,10.50
2023-04-09T22:10:33.622Z,10.50
2023-04-09T22:13:04.003Z,10.77
2023-04-09T22:26:06.982Z,10.52
2023-04-09T22:28:37.337Z,11.63
2023-04-09T22:31:07.989Z,11.60
2023-04-09T22:34:25.768Z,12.15
2023-04-09T22:36:56.200Z,11.50
2023-04-09T22:39:26.550Z,12.02
2023-04-09T22:41:59.559Z,12.05
2023-04-09T22:44:32.285Z,12.35
2023-04-09T22:47:02.568Z,10.82
2023-04-09T22:49:36.112Z,11.90
2023-04-09T22:52:08.658Z,10.77
2023-04-09T23:05:20.869Z,10.98
2023-04-09T23:07:51.506Z,11.27
2023-04-09T23:13:29.076Z,10.60
2023-04-09T23:16:01.297Z,10.85
2023-04-09T23:18:31.808Z,11.90
2023-04-09T23:21:09.487Z,11.48
2023-04-09T23:23:42.492Z,11.30
2023-04-09T23:26:12.783Z,11.50
2023-04-09T23:28:45.935Z,11.38
2023-04-09T23:31:16.704Z,10.90
2023-04-09T23:33:47.348Z,10.57
2023-04-09T23:36:20.278Z,10.80
2023-04-09T23:38:50.649Z,12.13
2023-04-09T23:41:21.183Z,11.98
2023-04-09T23:43:52.204Z,10.10
2023-04-09T23:46:23.014Z,11.07
2023-04-09T23:48:53.395Z,10.27
2023-04-09T23:51:31.886Z,10.68
2023-04-09T23:54:02.118Z,10.40
2023-04-09T23:56:32.387Z,9.70
2023-04-09T23:59:02.889Z,9.77
